עמוד ראשי
METAR-TAF:

METAR-TAF

שדות תעופה :

Cabo San Lucas, מקסיקו

קו רוחב: 22-56-51N, קו אורך: 109-56-13W, גובה: 210מטר

תצפית מזג אוויר נוכחית

הדו"ח נערך לפני 7 שעות ו 8דקות, בשעה 02:40 UTC
רוח 5קשר מכיוון דרום-מערב
טמפרטורת 23 צלסיוס
לחות 73%
לחץ 1008 hPa
ראות: 16.1קילומטר
שמיים נקיים

METAR: MMSL 160240Z 22005KT 10SM SKC 23/18 A2976

זמן: 02:48 (09:48 UTC)

תחזית

הדו"ח נערך לפני 4 שעות ו 46דקות, בשעה 05:02 UTC
תחזית בתוקף מ 16 ב 06 UTC עד 17 ב 06 UTC
רוח 10קשר מכיוון מערב/צפון-מערב
ראות: 10קילומטר
שמיים נקיים
יעשה מ
16 ב 19 UTC עד 16 ב 20 UTC
רוח 15קשר מכיוון מערב
מ 17 ב 0400UTC
רוח 10קשר מכיוון מערב/צפון-מערב
ראות: 10קילומטר
שמיים נקיים

TAF: MMSL 160502Z 1606/1706 29010KT P6SM SKC BECMG 1619/1620 28015KT FM170400 30010KT P6SM SKC

תצפיות ותחזיות מזג אוויר לגבי יותר מ- 4,000 שדות תעופה ברחבי העולם. דוחות METAR ו- TAF.

התחנות הזמינות מסומנות בנקודות צהובות ואדומות על גבי המפה.

העבר את העכבר לנקודה הצבעונית על מנת לראות את שם התחנה.

לאחר מכן, לחץ כדי לראות את תוכן ואת תחזיות מזג האוויר.

כדי לשנות את המפה: לחץ על הכפתורים הירוקים עם הפלוס השחור כדי להתקרב; על הכפתור הירוק עם המקף כדי להתרחק; או בחיצים הירוקים למפות סמוכות.


METAR-TAF: